Time;durP1;ratioP1;P1;durP2;ratioP2;P2;SDS_P1;SDS_P2;PMS_P1;PMS_P2;Temp;Humidity;BMP_temperature;BMP_pressure;BME280_temperature;BME280_humidity;BME280_pressure;Samples;Min_cycle;Max_cycle;Signal;HPM_P1;HPM_P2
2023/03/06 00:00:52;;;;;;;0.20;0.20;;;-1.20;99.90;;;;;;5035788;28;20453;-74
2023/03/06 00:03:18;;;;;;;0.30;0.30;;;-1.30;99.90;;;;;;5053989;28;20021;-74
2023/03/06 00:05:44;;;;;;;0.22;0.22;;;-1.30;99.90;;;;;;5036162;28;20044;-74
2023/03/06 00:08:09;;;;;;;0.25;0.25;;;-1.30;99.90;;;;;;5054523;28;20029;-74
2023/03/06 00:10:35;;;;;;;0.30;0.30;;;-1.30;99.90;;;;;;5035753;28;20021;-74
2023/03/06 00:13:06;;;;;;;0.28;0.28;;;-1.30;99.90;;;;;;5053552;28;20032;-74
2023/03/06 00:15:32;;;;;;;0.25;0.25;;;-1.20;99.90;;;;;;5053629;28;20403;-74
2023/03/06 00:17:58;;;;;;;0.30;0.30;;;-1.10;99.90;;;;;;5053987;28;20083;-74
2023/03/06 00:20:25;;;;;;;0.20;0.20;;;-1.00;99.90;;;;;;5053764;28;20478;-74
2023/03/06 00:22:50;;;;;;;0.25;0.25;;;-0.90;99.90;;;;;;5053787;28;20024;-74
2023/03/06 00:25:19;;;;;;;0.22;0.22;;;-0.80;99.90;;;;;;5053444;28;20441;-74
2023/03/06 00:27:45;;;;;;;0.30;0.30;;;-0.70;99.90;;;;;;5053356;28;20025;-74
2023/03/06 00:30:13;;;;;;;0.30;0.30;;;-0.80;99.90;;;;;;5053328;28;20090;-74
2023/03/06 00:32:39;;;;;;;0.20;0.20;;;-0.80;99.90;;;;;;5053490;28;20091;-74
2023/03/06 00:35:05;;;;;;;0.30;0.30;;;-0.90;99.90;;;;;;5053434;28;20033;-74
2023/03/06 00:37:30;;;;;;;0.20;0.20;;;-1.00;99.90;;;;;;5053301;28;20054;-73
2023/03/06 00:39:56;;;;;;;0.30;0.30;;;-1.00;99.90;;;;;;5053783;28;20032;-74
2023/03/06 00:42:21;;;;;;;0.20;0.20;;;-1.10;99.90;;;;;;5053264;28;20117;-74
2023/03/06 00:44:47;;;;;;;0.20;0.20;;;-1.30;99.90;;;;;;5052965;28;20036;-74
2023/03/06 00:47:16;;;;;;;0.30;0.30;;;-1.40;99.90;;;;;;5056113;28;20029;-74
2023/03/06 00:49:42;;;;;;;0.20;0.20;;;-1.50;99.90;;;;;;5056858;28;20021;-74
2023/03/06 00:52:08;;;;;;;0.20;0.20;;;-1.60;99.90;;;;;;5056724;28;20500;-74
2023/03/06 00:54:34;;;;;;;0.30;0.30;;;-1.70;99.90;;;;;;5056679;28;20100;-74
2023/03/06 00:56:59;;;;;;;0.20;0.20;;;-1.70;99.90;;;;;;5056761;28;20445;-74
2023/03/06 00:59:26;;;;;;;0.20;0.20;;;-1.80;99.90;;;;;;5056553;28;20395;-73
2023/03/06 01:01:52;;;;;;;0.20;0.20;;;-1.80;99.90;;;;;;5038826;28;20478;-74
2023/03/06 01:04:17;;;;;;;0.20;0.20;;;-1.80;99.90;;;;;;5038516;28;20116;-73
2023/03/06 01:06:43;;;;;;;0.20;0.20;;;-1.80;99.90;;;;;;5038712;28;20033;-74
2023/03/06 01:09:08;;;;;;;0.20;0.20;;;-1.70;99.90;;;;;;5056390;28;20064;-73
2023/03/06 01:11:34;;;;;;;0.20;0.20;;;-1.60;99.90;;;;;;5056922;28;20022;-74
2023/03/06 01:14:00;;;;;;;0.28;0.28;;;-1.40;99.90;;;;;;5056241;28;20029;-74
2023/03/06 01:16:25;;;;;;;0.20;0.20;;;-1.30;99.90;;;;;;5038389;28;20021;-73
2023/03/06 01:18:51;;;;;;;0.20;0.20;;;-1.10;99.90;;;;;;5056272;28;20021;-74
2023/03/06 01:21:16;;;;;;;0.20;0.20;;;-1.00;99.90;;;;;;5056522;28;20074;-73
2023/03/06 01:23:42;;;;;;;0.20;0.20;;;-1.00;99.90;;;;;;5038311;28;20020;-74
2023/03/06 01:26:08;;;;;;;0.20;0.20;;;-1.10;99.90;;;;;;5056105;28;20100;-74
2023/03/06 01:28:35;;;;;;;0.20;0.20;;;-1.10;99.90;;;;;;5038257;28;20035;-74
2023/03/06 01:31:01;;;;;;;0.28;0.28;;;-1.10;99.90;;;;;;5056018;28;20053;-73
2023/03/06 01:33:27;;;;;;;0.20;0.20;;;-1.20;99.90;;;;;;5056107;28;20056;-74
2023/03/06 01:35:52;;;;;;;0.30;0.30;;;-1.30;99.90;;;;;;5055976;28;20031;-74
2023/03/06 01:38:18;;;;;;;0.30;0.30;;;-1.30;99.90;;;;;;5056034;28;20083;-74
2023/03/06 01:40:44;;;;;;;0.22;0.22;;;-1.30;99.90;;;;;;5056305;28;20024;-74
2023/03/06 01:43:29;;;;;;;0.30;0.30;;;-1.40;99.90;;;;;;5038012;28;20078;-74
2023/03/06 01:46:16;;;;;;;0.30;0.30;;;-1.50;99.90;;;;;;5056305;28;20044;-74
2023/03/06 01:48:43;;;;;;;0.28;0.28;;;-1.50;99.90;;;;;;5055580;28;20107;-73
2023/03/06 01:51:10;;;;;;;0.30;0.30;;;-1.50;99.90;;;;;;5055956;28;20414;-73
2023/03/06 01:53:37;;;;;;;0.25;0.25;;;-1.50;99.90;;;;;;5055832;28;20021;-74
2023/03/06 01:56:03;;;;;;;0.20;0.20;;;-1.40;99.90;;;;;;5055580;28;20482;-74
2023/03/06 01:58:29;;;;;;;0.20;0.20;;;-1.40;99.90;;;;;;5055537;28;20029;-74
2023/03/06 02:00:54;;;;;;;0.20;0.20;;;-1.40;99.90;;;;;;5056054;28;20108;-74
2023/03/06 02:03:24;;;;;;;0.20;0.20;;;-1.50;99.90;;;;;;5037475;28;20032;-74
2023/03/06 02:05:50;;;;;;;0.20;0.20;;;-1.40;99.90;;;;;;5055336;28;20028;-74
2023/03/06 02:08:18;;;;;;;0.20;0.20;;;-1.40;99.90;;;;;;5055273;28;20025;-73
2023/03/06 02:11:13;;;;;;;0.20;0.20;;;-1.40;99.90;;;;;;5055183;28;20441;-74
2023/03/06 02:13:40;;;;;;;0.20;0.20;;;-1.40;99.90;;;;;;5055015;28;20052;-73
2023/03/06 02:16:08;;;;;;;0.20;0.20;;;-1.50;99.90;;;;;;5055290;28;20024;-73
2023/03/06 02:18:34;;;;;;;0.20;0.20;;;-1.60;99.90;;;;;;5037422;28;20029;-74
2023/03/06 02:21:05;;;;;;;0.28;0.28;;;-1.60;99.90;;;;;;5055392;28;20398;-74
2023/03/06 02:23:53;;;;;;;0.20;0.20;;;-1.70;99.90;;;;;;5037245;28;20437;-74
2023/03/06 02:26:20;;;;;;;0.20;0.20;;;-1.80;99.90;;;;;;5055032;28;20078;-74
2023/03/06 02:28:46;;;;;;;0.25;0.25;;;-2.00;99.90;;;;;;5037126;28;20441;-74
2023/03/06 02:31:27;;;;;;;0.30;0.30;;;-2.00;99.90;;;;;;5055356;28;20021;-74
2023/03/06 02:34:12;;;;;;;0.20;0.20;;;-2.20;99.90;;;;;;5054961;28;20478;-74
2023/03/06 02:36:44;;;;;;;0.20;0.20;;;-2.30;99.90;;;;;;5055212;28;20017;-74
2023/03/06 02:39:10;;;;;;;0.25;0.25;;;-2.40;99.90;;;;;;5055174;28;20065;-74
2023/03/06 02:41:36;;;;;;;0.20;0.20;;;-2.40;99.90;;;;;;5054935;28;20461;-74
2023/03/06 02:44:02;;;;;;;0.20;0.20;;;-2.50;99.90;;;;;;5054978;28;20120;-74
2023/03/06 02:46:28;;;;;;;0.20;0.20;;;-2.50;99.90;;;;;;5054531;28;20108;-74
2023/03/06 02:48:53;;;;;;;0.30;0.30;;;-2.50;99.90;;;;;;5054541;28;20075;-74
2023/03/06 02:51:19;;;;;;;0.30;0.30;;;-2.50;99.90;;;;;;5054903;28;20044;-74
2023/03/06 02:53:45;;;;;;;0.20;0.20;;;-2.60;99.90;;;;;;5054704;28;20032;-74
2023/03/06 02:56:11;;;;;;;0.30;0.30;;;-2.60;99.90;;;;;;5054433;28;20099;-74
2023/03/06 02:58:36;;;;;;;0.30;0.30;;;-2.70;99.90;;;;;;5054658;28;20060;-74
2023/03/06 03:01:02;;;;;;;0.30;0.30;;;-2.60;99.90;;;;;;5054811;28;20036;-74
2023/03/06 03:03:28;;;;;;;0.25;0.25;;;-2.50;99.90;;;;;;5054301;28;20464;-74
2023/03/06 03:05:53;;;;;;;0.30;0.30;;;-2.50;99.90;;;;;;5036709;28;20025;-74
2023/03/06 03:08:19;;;;;;;0.28;0.28;;;-2.30;99.90;;;;;;5053568;28;20112;-74
2023/03/06 03:10:44;;;;;;;0.20;0.20;;;-2.20;99.90;;;;;;5054409;28;20034;-74
2023/03/06 03:13:10;;;;;;;0.20;0.20;;;-2.00;99.90;;;;;;5054238;28;20021;-74
2023/03/06 03:15:36;;;;;;;0.20;0.20;;;-1.80;99.90;;;;;;5036306;28;20084;-74
2023/03/06 03:18:01;;;;;;;0.30;0.30;;;-1.60;99.90;;;;;;5054198;28;20422;-74
2023/03/06 03:20:27;;;;;;;0.30;0.30;;;-1.30;99.90;;;;;;5053967;28;20478;-74
2023/03/06 03:22:54;;;;;;;0.20;0.20;;;-1.00;99.90;;;;;;5054560;28;20031;-74
2023/03/06 03:25:21;;;;;;;0.28;0.28;;;-0.70;99.90;;;;;;5054234;28;20036;-74
2023/03/06 03:27:46;;;;;;;0.20;0.20;;;-0.60;99.90;;;;;;5054074;28;20025;-74
2023/03/06 03:30:12;;;;;;;0.30;0.30;;;-0.60;99.90;;;;;;5054083;28;20100;-74
2023/03/06 03:32:38;;;;;;;0.20;0.20;;;-0.60;99.90;;;;;;5036278;28;20375;-74
2023/03/06 03:35:05;;;;;;;0.20;0.20;;;-0.60;99.90;;;;;;5054533;28;20112;-74
2023/03/06 03:37:31;;;;;;;0.10;0.10;;;-0.50;99.90;;;;;;5053860;28;20029;-74
2023/03/06 03:39:58;;;;;;;0.30;0.30;;;-0.50;99.90;;;;;;5053966;28;20553;-74
2023/03/06 03:42:23;;;;;;;0.22;0.22;;;-0.50;99.90;;;;;;5053917;28;20482;-74
2023/03/06 03:44:49;;;;;;;0.20;0.20;;;-0.60;99.90;;;;;;5076801;22;20048;-73
2023/03/06 03:47:14;;;;;;;0.30;0.30;;;-0.60;99.90;;;;;;5053509;28;20044;-72
2023/03/06 03:49:40;;;;;;;0.10;0.10;;;-0.60;99.90;;;;;;5053282;28;20028;-73
2023/03/06 03:52:05;;;;;;;0.20;0.20;;;-0.60;99.90;;;;;;5053504;28;20142;-72
2023/03/06 03:54:31;;;;;;;0.30;0.30;;;-0.60;99.90;;;;;;5035320;28;20017;-73
2023/03/06 03:56:56;;;;;;;0.20;0.20;;;-0.60;99.90;;;;;;5053458;28;20064;-72
2023/03/06 03:59:22;;;;;;;0.25;0.25;;;-0.60;99.90;;;;;;5053339;28;20060;-72
2023/03/06 04:01:48;;;;;;;0.20;0.20;;;-0.70;99.90;;;;;;5053406;28;20040;-72
2023/03/06 04:04:14;;;;;;;0.20;0.20;;;-0.80;99.90;;;;;;5053036;28;20548;-73
2023/03/06 04:06:39;;;;;;;0.30;0.30;;;-0.90;99.90;;;;;;5052984;28;20028;-72
2023/03/06 04:09:05;;;;;;;0.20;0.20;;;-1.00;99.90;;;;;;5053019;28;20043;-73
2023/03/06 04:11:31;;;;;;;0.20;0.20;;;-1.10;99.90;;;;;;5053274;28;20025;-72
2023/03/06 04:13:56;;;;;;;0.30;0.30;;;-1.30;99.90;;;;;;5052934;28;20554;-73
2023/03/06 04:16:22;;;;;;;0.25;0.25;;;-1.30;99.90;;;;;;5053251;28;20104;-72
2023/03/06 04:18:47;;;;;;;0.20;0.20;;;-1.40;99.90;;;;;;5052946;28;20112;-73
2023/03/06 04:21:13;;;;;;;0.20;0.20;;;-1.50;99.90;;;;;;5057001;28;20033;-72
2023/03/06 04:23:38;;;;;;;0.22;0.22;;;-1.50;99.90;;;;;;5057060;28;20619;-72
2023/03/06 04:26:04;;;;;;;0.20;0.20;;;-1.50;99.90;;;;;;5057072;28;20461;-72
2023/03/06 04:28:30;;;;;;;0.22;0.22;;;-1.60;99.90;;;;;;5057056;28;20462;-73
2023/03/06 04:30:55;;;;;;;0.30;0.30;;;-1.60;99.90;;;;;;5057230;28;20025;-72
2023/03/06 04:33:21;;;;;;;0.30;0.30;;;-1.70;99.90;;;;;;5056882;28;20063;-73
2023/03/06 04:35:47;;;;;;;0.20;0.20;;;-1.80;99.90;;;;;;5056851;28;20061;-72
2023/03/06 04:38:12;;;;;;;0.20;0.20;;;-1.80;99.90;;;;;;5056838;28;20068;-73
2023/03/06 04:40:38;;;;;;;0.22;0.22;;;-1.60;99.90;;;;;;5056776;28;20432;-72
2023/03/06 04:43:04;;;;;;;0.20;0.20;;;-1.10;99.90;;;;;;5056767;28;20032;-72
2023/03/06 04:45:31;;;;;;;0.20;0.20;;;-0.80;99.90;;;;;;5056561;28;20071;-72
2023/03/06 04:47:57;;;;;;;0.28;0.28;;;-0.70;99.90;;;;;;5056632;28;20021;-72
2023/03/06 04:50:23;;;;;;;0.30;0.30;;;-0.60;99.90;;;;;;5056893;28;20017;-72
2023/03/06 04:52:49;;;;;;;0.20;0.20;;;-0.60;99.90;;;;;;5056567;28;20024;-72
2023/03/06 04:55:16;;;;;;;0.20;0.20;;;-0.50;99.90;;;;;;5056697;28;20025;-73
2023/03/06 04:57:43;;;;;;;0.28;0.28;;;-0.50;99.90;;;;;;5056457;28;20032;-72
2023/03/06 05:00:18;;;;;;;0.20;0.20;;;-0.40;99.90;;;;;;5056736;28;20029;-72
2023/03/06 05:02:44;;;;;;;0.13;0.13;;;-0.40;99.90;;;;;;5056961;28;20024;-72
2023/03/06 05:05:11;;;;;;;0.20;0.20;;;-0.40;99.90;;;;;;5056264;28;20111;-73
2023/03/06 05:07:37;;;;;;;0.20;0.20;;;-0.40;99.90;;;;;;5056252;28;20075;-72
2023/03/06 05:10:04;;;;;;;0.10;0.10;;;-0.40;99.90;;;;;;5056295;28;20075;-72
2023/03/06 05:12:29;;;;;;;0.20;0.20;;;-0.40;99.90;;;;;;5038323;28;20017;-72
2023/03/06 05:14:55;;;;;;;0.20;0.20;;;-0.40;99.90;;;;;;5056124;28;20121;-73
2023/03/06 05:17:20;;;;;;;0.15;0.15;;;-0.50;99.90;;;;;;5056172;28;20061;-72
2023/03/06 05:19:46;;;;;;;0.20;0.20;;;-0.60;99.90;;;;;;5038260;28;20029;-72
2023/03/06 05:22:11;;;;;;;0.30;0.30;;;-0.70;99.90;;;;;;5056083;28;20398;-73
2023/03/06 05:24:37;;;;;;;0.30;0.30;;;-0.70;99.90;;;;;;5056102;28;20040;-73
2023/03/06 05:27:03;;;;;;;0.30;0.30;;;-0.70;99.90;;;;;;5055940;28;20036;-72
2023/03/06 05:29:28;;;;;;;0.20;0.20;;;-0.80;99.90;;;;;;5038323;28;20448;-72
2023/03/06 05:31:54;;;;;;;0.20;0.20;;;-0.90;99.90;;;;;;5055170;28;20118;-73
2023/03/06 05:34:21;;;;;;;0.20;0.20;;;-1.00;99.90;;;;;;5056289;28;20103;-72
2023/03/06 05:36:46;;;;;;;0.20;0.20;;;-1.20;99.90;;;;;;5056027;28;20029;-72
2023/03/06 05:39:12;;;;;;;0.20;0.20;;;-1.30;99.90;;;;;;5056021;28;20021;-72
2023/03/06 05:41:38;;;;;;;0.30;0.30;;;-1.40;99.90;;;;;;5055695;28;20025;-73
2023/03/06 05:44:03;;;;;;;0.20;0.20;;;-1.40;99.90;;;;;;5055449;28;20029;-73
2023/03/06 05:46:29;;;;;;;0.20;0.20;;;-1.50;99.90;;;;;;5055854;28;20059;-72
2023/03/06 05:48:56;;;;;;;0.20;0.20;;;-1.50;99.90;;;;;;5055463;28;20025;-72
2023/03/06 05:51:22;;;;;;;0.20;0.20;;;-1.50;99.90;;;;;;5055531;28;20382;-72
2023/03/06 05:53:48;;;;;;;0.20;0.20;;;-1.40;99.90;;;;;;5055633;28;20053;-73
2023/03/06 05:56:14;;;;;;;0.20;0.20;;;-1.50;99.90;;;;;;5055690;28;20070;-72
2023/03/06 05:58:40;;;;;;;0.20;0.20;;;-1.50;99.90;;;;;;5055340;28;20028;-72
2023/03/06 06:01:16;;;;;;;0.20;0.20;;;-1.40;99.90;;;;;;5055871;28;20024;-72
2023/03/06 06:03:42;;;;;;;0.20;0.20;;;-1.30;99.90;;;;;;5055178;28;20371;-73
2023/03/06 06:06:10;;;;;;;0.20;0.20;;;-1.30;99.90;;;;;;5055372;28;20032;-72
2023/03/06 06:08:35;;;;;;;0.20;0.20;;;-1.20;99.90;;;;;;5054911;28;20025;-72
2023/03/06 06:11:04;;;;;;;0.20;0.20;;;-1.10;99.90;;;;;;5055112;28;20070;-72
2023/03/06 06:13:29;;;;;;;0.20;0.20;;;-1.10;99.90;;;;;;5055255;28;20029;-73
2023/03/06 06:15:55;;;;;;;0.20;0.20;;;-1.10;99.90;;;;;;5055292;28;20021;-72
2023/03/06 06:18:20;;;;;;;0.20;0.20;;;-1.10;99.90;;;;;;5055295;28;20033;-73
2023/03/06 06:20:46;;;;;;;0.25;0.25;;;-1.10;99.90;;;;;;5054930;28;20028;-72
2023/03/06 06:23:11;;;;;;;0.20;0.20;;;-1.10;99.90;;;;;;5054864;28;20091;-72
2023/03/06 06:25:37;;;;;;;0.20;0.20;;;-1.00;99.90;;;;;;5054755;28;20025;-72
2023/03/06 06:28:04;;;;;;;0.30;0.30;;;-1.00;99.90;;;;;;5054721;28;20029;-72
2023/03/06 06:30:31;;;;;;;0.30;0.30;;;-0.90;99.90;;;;;;5054752;28;20017;-72
2023/03/06 06:32:57;;;;;;;0.20;0.20;;;-0.90;99.90;;;;;;5054697;28;20021;-72
2023/03/06 06:35:22;;;;;;;0.20;0.20;;;-0.90;99.90;;;;;;5036719;28;20017;-72
2023/03/06 06:37:48;;;;;;;0.20;0.20;;;-0.90;99.90;;;;;;5054588;28;20031;-73
2023/03/06 06:40:14;;;;;;;0.25;0.25;;;-0.80;99.90;;;;;;5055096;28;20025;-72
2023/03/06 06:42:40;;;;;;;0.10;0.10;;;-0.90;99.90;;;;;;5054420;28;20086;-72
2023/03/06 06:45:09;;;;;;;0.20;0.20;;;-0.90;99.90;;;;;;5053598;28;20036;-73
2023/03/06 06:47:39;;;;;;;0.10;0.10;;;-0.80;99.90;;;;;;5054607;28;20124;-72
2023/03/06 06:50:10;;;;;;;0.30;0.30;;;-0.70;99.90;;;;;;5054400;28;20041;-72
2023/03/06 06:52:36;;;;;;;0.15;0.15;;;-0.60;99.90;;;;;;5036529;28;20033;-73
2023/03/06 06:55:01;;;;;;;0.20;0.20;;;-0.50;99.90;;;;;;5054219;28;20021;-73
2023/03/06 06:57:27;;;;;;;0.20;0.20;;;-0.40;99.90;;;;;;5054256;28;20048;-72
2023/03/06 06:59:52;;;;;;;0.20;0.20;;;-0.40;99.90;;;;;;5036330;28;20021;-72
2023/03/06 07:02:18;;;;;;;0.20;0.20;;;-0.30;99.90;;;;;;5054160;28;20393;-72
2023/03/06 07:04:44;;;;;;;0.20;0.20;;;-0.10;99.90;;;;;;5054044;28;20021;-73
2023/03/06 07:07:10;;;;;;;0.30;0.30;;;-0.10;99.90;;;;;;5054527;28;20025;-72
2023/03/06 07:09:38;;;;;;;0.20;0.20;;;0.00;99.90;;;;;;5054278;28;20043;-72
2023/03/06 07:12:05;;;;;;;0.20;0.20;;;0.10;99.90;;;;;;5036099;28;20032;-73
2023/03/06 07:14:30;;;;;;;0.20;0.20;;;0.20;99.90;;;;;;5053881;28;20025;-73
2023/03/06 07:16:57;;;;;;;0.20;0.20;;;0.20;99.90;;;;;;5053882;28;20029;-72
2023/03/06 07:19:22;;;;;;;0.30;0.30;;;0.20;99.90;;;;;;5053813;28;20017;-72
2023/03/06 07:21:48;;;;;;;0.10;0.10;;;0.20;99.90;;;;;;5053780;28;20036;-72
2023/03/06 07:24:13;;;;;;;0.10;0.10;;;0.10;99.90;;;;;;5053660;28;20017;-73
2023/03/06 07:26:39;;;;;;;0.30;0.30;;;0.00;99.90;;;;;;5053890;28;20028;-72
2023/03/06 07:29:05;;;;;;;0.20;0.20;;;-0.10;99.90;;;;;;5053666;28;20021;-72
2023/03/06 07:31:30;;;;;;;0.20;0.20;;;-0.10;99.90;;;;;;5053640;28;20065;-72
2023/03/06 07:33:56;;;;;;;0.20;0.20;;;-0.20;99.90;;;;;;5053544;28;20024;-72
2023/03/06 07:36:22;;;;;;;0.22;0.22;;;-0.30;99.90;;;;;;5053677;28;20032;-73
2023/03/06 07:38:48;;;;;;;0.30;0.30;;;-0.40;99.90;;;;;;5035631;28;20116;-72
2023/03/06 07:41:15;;;;;;;0.20;0.20;;;-0.40;99.90;;;;;;5053995;28;20104;-72
2023/03/06 07:43:41;;;;;;;0.20;0.20;;;-0.40;99.90;;;;;;5053244;28;20041;-73
2023/03/06 07:46:08;;;;;;;0.30;0.30;;;-0.20;99.90;;;;;;5035531;28;20021;-73
2023/03/06 07:48:35;;;;;;;0.20;0.20;;;0.10;99.90;;;;;;5053274;28;20025;-72
2023/03/06 07:51:06;;;;;;;0.20;0.20;;;0.30;99.90;;;;;;5053556;28;20067;-72
2023/03/06 07:53:32;;;;;;;0.20;0.20;;;0.50;99.90;;;;;;5053498;28;20482;-72
2023/03/06 07:55:58;;;;;;;0.20;0.20;;;0.70;99.90;;;;;;5052969;28;20075;-72
2023/03/06 07:58:24;;;;;;;0.30;0.30;;;0.90;99.90;;;;;;5053483;28;20029;-72
2023/03/06 08:00:50;;;;;;;0.20;0.20;;;1.00;99.90;;;;;;5053162;28;20025;-72
2023/03/06 08:03:16;;;;;;;0.15;0.15;;;1.20;99.90;;;;;;5053128;28;20040;-73
2023/03/06 08:05:42;;;;;;;0.20;0.20;;;1.30;99.90;;;;;;5053313;28;20033;-73
2023/03/06 08:08:07;;;;;;;0.20;0.20;;;1.40;99.90;;;;;;5053028;28;20112;-72
2023/03/06 08:10:33;;;;;;;0.13;0.13;;;1.60;99.90;;;;;;5053312;28;20029;-72
2023/03/06 08:12:58;;;;;;;0.20;0.20;;;1.80;99.90;;;;;;5053050;28;20021;-72
2023/03/06 08:15:24;;;;;;;0.20;0.20;;;1.80;99.90;;;;;;5035091;28;20021;-73
2023/03/06 08:17:51;;;;;;;0.20;0.20;;;1.90;99.90;;;;;;5053270;28;20033;-72
2023/03/06 08:20:17;;;;;;;0.22;0.22;;;2.00;99.90;;;;;;5052970;28;20490;-73
2023/03/06 08:22:43;;;;;;;0.20;0.20;;;2.00;99.90;;;;;;5035100;28;20501;-73
2023/03/06 08:25:12;;;;;;;0.20;0.20;;;2.10;99.90;;;;;;5034981;28;20025;-73
2023/03/06 08:27:37;;;;;;;0.30;0.30;;;2.20;99.90;;;;;;5034939;28;20514;-73
2023/03/06 08:30:04;;;;;;;0.20;0.20;;;2.20;99.90;;;;;;5052862;28;20021;-73
2023/03/06 08:32:30;;;;;;;0.20;0.20;;;2.30;99.90;;;;;;5052838;28;20501;-73
2023/03/06 08:34:55;;;;;;;0.10;0.10;;;2.30;99.90;;;;;;5052955;28;20025;-73
2023/03/06 08:37:21;;;;;;;0.20;0.20;;;2.40;99.90;;;;;;5052733;28;20036;-73
2023/03/06 08:39:46;;;;;;;0.13;0.13;;;2.50;99.90;;;;;;5052802;28;20033;-73
2023/03/06 08:42:12;;;;;;;0.20;0.20;;;2.70;99.90;;;;;;5053270;28;20029;-73
2023/03/06 08:44:37;;;;;;;0.20;0.20;;;2.80;99.90;;;;;;5052566;28;20047;-73
2023/03/06 08:47:03;;;;;;;0.20;0.20;;;2.90;99.90;;;;;;5034757;28;20035;-73
2023/03/06 08:49:29;;;;;;;0.20;0.20;;;3.10;99.90;;;;;;5052681;28;20104;-73
2023/03/06 08:51:55;;;;;;;0.28;0.28;;;3.30;99.90;;;;;;5052936;28;20445;-72
2023/03/06 08:54:20;;;;;;;0.20;0.20;;;3.30;99.90;;;;;;5052882;28;20065;-73
2023/03/06 08:56:46;;;;;;;0.20;0.20;;;3.40;99.90;;;;;;5052594;28;20017;-73
2023/03/06 08:59:12;;;;;;;0.20;0.20;;;3.50;99.90;;;;;;5052606;28;20065;-72
2023/03/06 09:01:38;;;;;;;0.20;0.20;;;3.60;99.90;;;;;;5052829;28;20115;-73
2023/03/06 09:04:10;;;;;;;0.20;0.20;;;3.60;99.90;;;;;;5052486;28;20028;-73
2023/03/06 09:06:39;;;;;;;0.20;0.20;;;3.80;99.90;;;;;;5053425;28;20474;-72
2023/03/06 09:09:05;;;;;;;0.10;0.10;;;3.80;99.90;;;;;;5056241;28;20044;-72
2023/03/06 09:11:31;;;;;;;0.25;0.25;;;3.90;99.90;;;;;;5056256;28;20033;-72
2023/03/06 09:13:57;;;;;;;0.20;0.20;;;3.90;99.90;;;;;;5056139;28;20017;-73
2023/03/06 09:16:23;;;;;;;0.20;0.20;;;3.90;99.90;;;;;;5056205;28;20075;-72
2023/03/06 09:18:51;;;;;;;0.13;0.13;;;3.90;99.90;;;;;;5056152;28;20033;-72
2023/03/06 09:21:18;;;;;;;0.20;0.20;;;4.00;99.90;;;;;;5056636;28;20049;-73
2023/03/06 09:23:43;;;;;;;0.13;0.13;;;4.00;99.90;;;;;;5055972;28;20490;-73
2023/03/06 09:26:10;;;;;;;0.20;0.20;;;4.10;99.90;;;;;;5056000;28;20041;-73
2023/03/06 09:28:37;;;;;;;0.22;0.22;;;4.20;99.90;;;;;;5055856;28;20025;-72
2023/03/06 09:31:11;;;;;;;0.20;0.20;;;4.50;99.90;;;;;;5055905;28;20017;-73
2023/03/06 09:33:37;;;;;;;0.30;0.30;;;4.50;99.90;;;;;;5056036;28;20053;-73
2023/03/06 09:36:04;;;;;;;0.20;0.20;;;4.50;99.90;;;;;;5055788;28;20104;-72
2023/03/06 09:38:30;;;;;;;0.20;0.20;;;4.60;99.90;;;;;;5037855;28;20029;-72
2023/03/06 09:41:17;;;;;;;0.20;0.20;;;4.50;99.90;;;;;;5055689;28;20070;-73
2023/03/06 09:43:46;;;;;;;0.30;0.30;;;4.50;99.90;;;;;;5037528;28;20044;-73
2023/03/06 09:46:28;;;;;;;0.20;0.20;;;4.50;99.90;;;;;;5079520;22;20115;-75
2023/03/06 09:49:09;;;;;;;0.20;0.20;;;4.50;99.90;;;;;;5056500;28;20029;-74
2023/03/06 09:52:13;;;;;;;0.20;0.20;;;4.50;99.90;;;;;;5057312;28;20055;-74
2023/03/06 09:54:43;;;;;;;0.30;0.30;;;4.50;99.90;;;;;;5043842;28;20044;-74
2023/03/06 09:57:20;;;;;;;0.20;0.20;;;4.70;99.90;;;;;;5057479;28;20029;-74
2023/03/06 09:59:49;;;;;;;0.20;0.20;;;4.80;99.90;;;;;;5056569;28;20029;-75
2023/03/06 10:02:22;;;;;;;0.20;0.20;;;5.00;99.90;;;;;;5056273;28;20029;-75
2023/03/06 10:05:02;;;;;;;0.17;0.17;;;5.00;99.90;;;;;;5056336;28;20036;-74
2023/03/06 10:07:59;;;;;;;0.17;0.17;;;5.00;99.90;;;;;;5055869;28;20100;-74
2023/03/06 10:10:31;;;;;;;0.20;0.20;;;5.20;99.90;;;;;;5037682;28;20470;-74
2023/03/06 10:13:32;;;;;;;0.20;0.20;;;5.40;99.90;;;;;;5055683;28;20024;-75
2023/03/06 10:16:12;;;;;;;0.30;0.30;;;5.50;99.90;;;;;;5033468;28;20502;-75
2023/03/06 10:18:38;;;;;;;0.20;0.20;;;5.60;99.90;;;;;;5055113;28;20067;-74
2023/03/06 10:21:14;;;;;;;0.20;0.20;;;5.50;99.90;;;;;;5037204;28;20021;-74
2023/03/06 10:23:51;;;;;;;0.20;0.20;;;5.50;99.90;;;;;;5055140;28;20113;-74
2023/03/06 10:26:24;;;;;;;0.20;0.20;;;5.60;99.90;;;;;;5054973;28;20021;-74
2023/03/06 10:29:42;;;;;;;0.20;0.20;;;5.70;99.90;;;;;;5037066;28;20434;-74
2023/03/06 10:32:25;;;;;;;0.20;0.20;;;5.80;99.90;;;;;;5055191;28;20032;-74
2023/03/06 10:34:52;;;;;;;0.30;0.30;;;5.60;99.90;;;;;;5054968;28;20029;-74
2023/03/06 10:37:20;;;;;;;0.30;0.30;;;5.60;99.90;;;;;;5037204;28;20393;-74
2023/03/06 10:39:50;;;;;;;0.20;0.20;;;5.60;99.90;;;;;;5054709;28;20025;-74
2023/03/06 10:42:16;;;;;;;0.20;0.20;;;5.70;99.90;;;;;;5055199;28;20028;-74
2023/03/06 10:44:42;;;;;;;0.20;0.20;;;5.70;99.90;;;;;;5054349;28;20393;-74
2023/03/06 10:47:40;;;;;;;0.20;0.20;;;5.70;99.90;;;;;;5036663;28;20025;-74
2023/03/06 10:50:23;;;;;;;0.20;0.20;;;5.90;99.90;;;;;;5014745;28;20033;-75
2023/03/06 10:53:03;;;;;;;0.17;0.17;;;5.90;99.90;;;;;;5054795;28;20487;-74
2023/03/06 10:55:32;;;;;;;0.20;0.20;;;5.70;99.90;;;;;;5054599;28;20027;-74
2023/03/06 10:58:21;;;;;;;0.28;0.28;;;5.60;99.90;;;;;;5054309;28;20060;-74
2023/03/06 11:00:47;;;;;;;0.20;0.20;;;5.40;99.90;;;;;;5054246;28;20021;-74
2023/03/06 11:03:20;;;;;;;0.20;0.20;;;5.30;99.90;;;;;;5036305;28;20489;-74
2023/03/06 11:06:08;;;;;;;0.30;0.30;;;5.30;99.90;;;;;;5053970;28;20033;-74
2023/03/06 11:08:35;;;;;;;0.20;0.20;;;5.30;99.90;;;;;;5054157;28;20021;-74
2023/03/06 11:11:06;;;;;;;0.20;0.20;;;5.40;99.90;;;;;;5054077;28;20056;-74
2023/03/06 11:13:36;;;;;;;0.20;0.20;;;5.50;99.90;;;;;;5054337;28;20024;-74
2023/03/06 11:16:38;;;;;;;0.30;0.30;;;5.60;99.90;;;;;;5053994;28;20020;-74
2023/03/06 11:19:17;;;;;;;0.20;0.20;;;5.70;99.90;;;;;;5012218;28;20030;-74
2023/03/06 11:21:57;;;;;;;0.20;0.20;;;6.20;99.90;;;;;;5049283;28;20524;-74
2023/03/06 11:24:23;;;;;;;0.20;0.20;;;6.70;99.90;;;;;;5053980;28;20165;-74
2023/03/06 11:26:57;;;;;;;0.30;0.30;;;7.00;99.90;;;;;;5053641;28;20032;-74
2023/03/06 11:29:41;;;;;;;0.20;0.20;;;6.90;99.90;;;;;;5053411;28;20081;-74
2023/03/06 11:32:13;;;;;;;0.20;0.20;;;6.80;99.90;;;;;;5053695;28;20075;-74
2023/03/06 11:34:43;;;;;;;0.20;0.20;;;6.60;99.90;;;;;;5035625;28;20394;-74
2023/03/06 11:37:41;;;;;;;0.20;0.20;;;6.40;99.90;;;;;;5053545;28;20060;-74
2023/03/06 11:40:10;;;;;;;0.10;0.10;;;6.00;99.90;;;;;;5053524;28;20067;-74
2023/03/06 11:42:50;;;;;;;0.17;0.17;;;6.30;99.90;;;;;;5053741;28;20086;-74
2023/03/06 11:45:27;;;;;;;0.20;0.20;;;6.80;99.90;;;;;;5035941;28;20040;-74
2023/03/06 11:48:15;;;;;;;0.28;0.28;;;7.20;99.90;;;;;;5035511;28;20079;-74
2023/03/06 11:50:48;;;;;;;0.20;0.20;;;7.50;99.90;;;;;;5053629;28;20017;-74
2023/03/06 11:53:20;;;;;;;0.20;0.20;;;7.70;99.90;;;;;;5053281;28;20021;-74
2023/03/06 11:55:58;;;;;;;0.20;0.20;;;7.50;99.90;;;;;;5035329;28;20021;-74
2023/03/06 11:58:46;;;;;;;0.20;0.20;;;7.30;99.90;;;;;;5053520;28;20418;-74
2023/03/06 12:01:26;;;;;;;0.20;0.20;;;7.00;99.90;;;;;;5053432;28;20028;-74
2023/03/06 12:04:12;;;;;;;0.20;0.20;;;7.20;99.90;;;;;;5053474;28;20058;-74
2023/03/06 12:06:57;;;;;;;0.10;0.10;;;7.30;99.90;;;;;;5052641;28;20376;-74
2023/03/06 12:09:41;;;;;;;0.20;0.20;;;7.50;99.90;;;;;;5053130;28;20032;-74
2023/03/06 12:12:07;;;;;;;;;;;7.50;99.90;;;;;;5053531;28;20100;-74
2023/03/06 12:15:10;;;;;;;0.20;0.20;;;7.70;99.90;;;;;;5035151;28;20005;-74
2023/03/06 12:17:53;;;;;;;0.20;0.20;;;7.70;99.90;;;;;;5035100;28;20079;-74
2023/03/06 12:20:53;;;;;;;0.20;0.20;;;7.50;99.90;;;;;;5053291;28;20383;-74
2023/03/06 12:23:44;;;;;;;0.20;0.20;;;7.20;99.90;;;;;;5035194;28;20029;-74
2023/03/06 12:26:30;;;;;;;0.20;0.20;;;7.40;99.90;;;;;;5052894;28;20025;-74
2023/03/06 12:29:11;;;;;;;0.20;0.20;;;7.60;99.90;;;;;;5053092;28;20025;-74
2023/03/06 12:31:50;;;;;;;0.20;0.20;;;7.40;99.90;;;;;;5052903;28;20025;-74
2023/03/06 12:34:39;;;;;;;0.20;0.20;;;7.20;99.90;;;;;;5053180;28;20025;-74
2023/03/06 12:37:28;;;;;;;0.20;0.20;;;7.30;99.90;;;;;;5053124;28;20052;-74
2023/03/06 12:40:28;;;;;;;0.25;0.25;;;7.70;99.90;;;;;;5052908;28;20104;-74
2023/03/06 12:43:18;;;;;;;0.10;0.10;;;7.50;99.90;;;;;;5055973;28;20021;-74
2023/03/06 12:45:45;;;;;;;0.10;0.10;;;7.50;99.90;;;;;;5056725;28;20028;-74
2023/03/06 12:48:17;;;;;;;0.22;0.22;;;7.80;99.90;;;;;;5038778;28;20025;-74
2023/03/06 12:50:44;;;;;;;0.20;0.20;;;7.90;99.90;;;;;;5038835;28;20021;-74
2023/03/06 12:53:26;;;;;;;0.13;0.13;;;8.20;99.90;;;;;;5056631;28;20032;-74
2023/03/06 12:55:52;;;;;;;0.30;0.30;;;8.40;99.90;;;;;;5038738;28;20025;-74
2023/03/06 12:58:27;;;;;;;0.10;0.10;;;8.30;99.90;;;;;;5056532;28;20478;-74
2023/03/06 13:01:15;;;;;;;0.20;0.20;;;8.40;99.90;;;;;;5038647;28;20111;-74
2023/03/06 13:03:52;;;;;;;0.20;0.20;;;8.30;99.90;;;;;;5056743;28;20025;-74